Concord Municipal Airport Concord US
ICAO: KCON
IATA: CON
Category: Medium
Scheduled Services: No

Elevation: 342 ft
TransAlt. 18000 ft.

Airport Communications:
BOSTON APP/DEP:127.35
ASOS:132.32
CLNC DEL:133.65
ARNG OPS:32.1
BANGOR RDO:122.3
CTAF/UNICOM:122.7

KCON Zoom In..

Runways:

(A) RW 12 length 3200 ft width 75 ft
---- / hdg 121

(B) RW 17 length 6005 ft width 100 ft
---- / hdg 171

(C) RW 30 length 3200 ft width 75 ft
---- / hdg 301

(D) RW 35 length 6005 ft width 100 ft
ILS 108.70 / hdg 351

Location; KCON
Day. 23 / Time. 07.51 Zulu
* Altimeter: 30.16
* Temperature: 23° c. 73.4°f.
* Wind from: 140° Speed 05 kn.
Dewpoint: 22° c.
Visibility: 9 Statute Miles.
Clouds: Broken 900 ft.
Clouds: Overcast 1400 ft.
Conditions: Light Rain.

KCON 230751Z AUTO 14005KT 9SM -RA BKN009 OVC014 23/22 A3016 RMK AO2 RAB41 CIG 007V011 SLP213 P0000 T02280222


Wind From 140°
Speed 05 kn.

 
 
jpsmedia.com for Web Design worldairports.se 2018   terms of use